Time;durP1;ratioP1;P1;durP2;ratioP2;P2;SDS_P1;SDS_P2;PMS_P1;PMS_P2;Temp;Humidity;BMP_temperature;BMP_pressure;BME280_temperature;BME280_humidity;BME280_pressure;Samples;Min_cycle;Max_cycle;Signal;HPM_P1;HPM_P2
2021/01/04 00:01:40;;;;;;;7.50;1.33;;;;;;;-0.95;100.00;100612.78;5002367;28;20057;-81
2021/01/04 00:04:55;;;;;;;0.43;0.43;;;;;;;-0.90;100.00;100614.38;5014809;28;20072;-81
2021/01/04 00:08:28;;;;;;;2.47;0.65;;;;;;;-0.83;100.00;100614.44;5015015;28;20406;-81
2021/01/04 00:12:04;;;;;;;2.47;0.98;;;;;;;-0.79;100.00;100609.78;5014941;28;20114;-80
2021/01/04 00:15:19;;;;;;;1.38;1.15;;;;;;;-0.87;100.00;100613.63;5014586;28;20605;-81
2021/01/04 00:18:43;;;;;;;3.88;1.48;;;;;;;-0.87;100.00;100616.38;5014827;28;20065;-81
2021/01/04 00:22:16;;;;;;;1.20;1.08;;;;;;;-0.88;100.00;100620.25;5014246;28;20057;-81
2021/01/04 00:25:29;;;;;;;8.65;1.70;;;;;;;-0.97;100.00;100614.31;5014309;28;20057;-81
2021/01/04 00:28:36;;;;;;;4.15;1.85;;;;;;;-1.04;100.00;100619.75;5014463;28;20064;-81
2021/01/04 00:31:45;;;;;;;0.88;0.43;;;;;;;-1.11;100.00;100616.97;5014128;28;20049;-81
2021/01/04 00:34:53;;;;;;;2.95;1.60;;;;;;;-1.17;100.00;100610.28;5014713;28;20052;-80
2021/01/04 00:38:06;;;;;;;2.15;0.77;;;;;;;-1.18;100.00;100614.16;4999453;28;20053;-80
2021/01/04 00:41:21;;;;;;;1.40;1.05;;;;;;;-1.23;100.00;100609.03;4982156;28;20065;-81
2021/01/04 00:44:32;;;;;;;1.42;1.17;;;;;;;-1.26;100.00;100607.06;4983101;28;20045;-81
2021/01/04 00:48:15;;;;;;;1.42;0.85;;;;;;;-1.26;100.00;100604.34;4994830;28;20522;-81
2021/01/04 00:51:28;;;;;;;0.50;0.50;;;;;;;-1.27;100.00;100610.97;4994390;28;20061;-81
2021/01/04 00:55:23;;;;;;;1.55;0.85;;;;;;;-1.32;100.00;100608.59;4994800;28;20139;-80
2021/01/04 00:58:46;;;;;;;0.73;0.73;;;;;;;-1.33;100.00;100612.47;4986827;28;20096;-81
2021/01/04 01:01:56;;;;;;;0.95;0.55;;;;;;;-1.36;100.00;100610.47;4995068;28;20053;-81
2021/01/04 01:05:08;;;;;;;1.75;0.70;;;;;;;-1.40;100.00;100617.88;4996258;28;20553;-81
2021/01/04 01:08:15;;;;;;;3.08;1.02;;;;;;;-1.45;100.00;100610.03;4995605;28;20053;-82
2021/01/04 01:11:35;;;;;;;0.68;0.68;;;;;;;-1.46;100.00;100609.25;5001173;28;20066;-82
2021/01/04 01:14:57;;;;;;;0.50;0.40;;;;;;;-1.47;100.00;100613.13;4998625;28;20049;-82
2021/01/04 01:18:10;;;;;;;1.13;1.13;;;;;;;-1.46;100.00;100614.69;4998449;28;20057;-82
2021/01/04 01:21:14;;;;;;;1.20;0.52;;;;;;;-1.46;100.00;100613.91;4997983;28;20054;-82
2021/01/04 01:24:18;;;;;;;1.77;1.67;;;;;;;-1.47;100.00;100613.13;5000883;28;20066;-81
2021/01/04 01:27:41;;;;;;;0.90;0.80;;;;;;;-1.50;100.00;100610.38;5003909;28;20053;-81
2021/01/04 01:31:16;;;;;;;0.60;0.60;;;;;;;-1.55;100.00;100612.28;4992482;28;20057;-82
2021/01/04 01:34:42;;;;;;;6.38;2.72;;;;;;;-1.58;100.00;100607.56;5001788;28;20054;-81
2021/01/04 01:38:17;;;;;;;0.93;0.88;;;;;;;-1.61;100.00;100615.72;5002254;28;20061;-81
2021/01/04 01:41:46;;;;;;;1.58;1.05;;;;;;;-1.55;100.00;100623.19;5010555;28;20061;-81
2021/01/04 01:45:13;;;;;;;0.45;0.30;;;;;;;-1.39;100.00;100625.69;5008013;28;20108;-81
2021/01/04 01:48:32;;;;;;;0.47;0.47;;;;;;;-1.25;100.00;100625.03;5016115;28;20052;-82
2021/01/04 01:52:12;;;;;;;1.50;1.35;;;;;;;-1.09;100.00;100622.84;5016481;28;20053;-82
2021/01/04 01:55:29;;;;;;;0.65;0.50;;;;;;;-1.08;100.00;100613.47;5020339;28;20058;-81
2021/01/04 01:58:59;;;;;;;0.85;0.85;;;;;;;-1.10;100.00;100621.25;5018209;28;20052;-81
2021/01/04 02:02:12;;;;;;;1.95;0.68;;;;;;;-1.16;100.00;100620.03;5003400;28;20433;-81
2021/01/04 02:05:21;;;;;;;2.47;1.25;;;;;;;-1.19;100.00;100623.53;5023737;28;20053;-82
2021/01/04 02:08:27;;;;;;;1.10;0.70;;;;;;;-1.26;100.00;100624.25;5006171;28;20405;-82
2021/01/04 02:11:45;;;;;;;0.52;0.52;;;;;;;-1.31;100.00;100630.06;5021023;28;20072;-82
2021/01/04 02:15:14;;;;;;;0.20;0.20;;;;;;;-1.26;100.00;100631.66;5022952;28;20064;-82
2021/01/04 02:18:28;;;;;;;1.20;0.68;;;;;;;-1.19;100.00;100629.00;5020809;28;20060;-81
2021/01/04 02:21:47;;;;;;;0.60;0.60;;;;;;;-1.14;100.00;100634.09;5009838;28;20053;-82
2021/01/04 02:24:50;;;;;;;0.80;0.80;;;;;;;-1.08;100.00;100636.09;5007306;28;20057;-81
2021/01/04 02:28:00;;;;;;;0.30;0.30;;;;;;;-1.05;100.00;100629.91;5020252;28;20501;-81
2021/01/04 02:31:03;;;;;;;1.65;0.95;;;;;;;-1.07;100.00;100639.63;5018172;28;20509;-81
2021/01/04 02:34:09;;;;;;;1.20;1.15;;;;;;;-1.06;100.00;100633.03;5018180;28;20053;-81
2021/01/04 02:37:14;;;;;;;3.22;1.00;;;;;;;-1.09;100.00;100633.75;5019353;28;20521;-82
2021/01/04 02:40:19;;;;;;;3.60;1.83;;;;;;;-1.11;100.00;100633.34;4982061;28;20049;-82
2021/01/04 02:43:22;;;;;;;1.15;1.05;;;;;;;-1.15;100.00;100641.50;4980152;28;20518;-81
2021/01/04 02:46:26;;;;;;;11.07;0.70;;;;;;;-1.19;100.00;100642.66;4988357;28;20073;-80
2021/01/04 02:49:40;;;;;;;0.40;0.40;;;;;;;-1.17;100.00;100638.38;4990805;28;20054;-78
2021/01/04 02:53:05;;;;;;;1.13;0.93;;;;;;;-1.13;100.00;100627.50;4980938;28;20526;-78
2021/01/04 02:56:20;;;;;;;0.40;0.40;;;;;;;-0.93;100.00;100631.53;4992592;28;20703;-78
2021/01/04 02:59:33;;;;;;;0.90;0.68;;;;;;;-0.87;100.00;100619.09;4997475;28;20565;-86
2021/01/04 03:02:46;;;;;;;0.75;0.75;;;;;;;-0.89;100.00;100624.16;4997446;28;20058;-86
2021/01/04 03:05:50;;;;;;;0.60;0.50;;;;;;;-0.89;100.00;100626.91;4984875;28;20054;-85
2021/01/04 03:08:54;;;;;;;0.50;0.38;;;;;;;-0.85;100.00;100625.75;4996835;28;20057;-85
2021/01/04 03:12:00;;;;;;;0.45;0.38;;;;;;;-0.67;100.00;100628.59;4995808;28;20077;-85
2021/01/04 03:15:16;;;;;;;0.82;0.82;;;;;;;-0.54;100.00;100631.81;4996215;28;20069;-85
2021/01/04 03:18:26;;;;;;;0.68;0.68;;;;;;;-0.35;100.00;100612.38;4995813;28;20053;-84
2021/01/04 03:21:30;;;;;;;11.57;1.02;;;;;;;-0.18;100.00;100609.75;4994898;28;20061;-78
2021/01/04 03:24:33;;;;;;;14.02;1.27;;;;;;;-0.04;100.00;100609.78;4983172;28;20050;-78
2021/01/04 03:27:41;;;;;;;2.50;0.80;;;;;;;0.07;100.00;100612.56;4995845;28;20046;-76
2021/01/04 03:30:45;;;;;;;0.68;0.45;;;;;;;0.15;100.00;100607.91;4995364;28;20049;-78
2021/01/04 03:33:49;;;;;;;1.45;0.75;;;;;;;0.20;100.00;100615.72;4983146;28;20058;-78
2021/01/04 03:36:52;;;;;;;1.20;1.17;;;;;;;0.24;100.00;100622.78;4983396;28;20100;-77
2021/01/04 03:39:56;;;;;;;0.70;0.70;;;;;;;0.23;100.00;100626.69;5013429;28;20057;-81
2021/01/04 03:42:59;;;;;;;3.13;1.13;;;;;;;0.28;100.00;100620.81;5014692;28;20509;-80
2021/01/04 03:46:03;;;;;;;0.70;0.40;;;;;;;0.31;100.00;100639.25;5001936;28;20513;-82
2021/01/04 03:49:07;;;;;;;0.60;0.60;;;;;;;0.33;100.00;100622.41;5014674;28;20121;-81
2021/01/04 03:52:10;;;;;;;1.75;1.00;;;;;;;0.34;100.00;100622.03;5014416;28;20505;-81
2021/01/04 03:55:15;;;;;;;0.93;0.77;;;;;;;0.37;100.00;100615.75;5014155;28;20087;-81
2021/01/04 03:58:18;;;;;;;1.73;0.68;;;;;;;0.38;100.00;100616.56;5014008;28;20045;-81
2021/01/04 04:01:22;;;;;;;0.85;0.60;;;;;;;0.38;100.00;100622.81;5015033;28;20406;-81
2021/01/04 04:04:25;;;;;;;1.65;1.40;;;;;;;0.37;100.00;100610.28;5012508;28;20052;-82
2021/01/04 04:07:29;;;;;;;1.10;1.00;;;;;;;0.37;100.00;100615.00;4978812;28;20049;-81
2021/01/04 04:10:32;;;;;;;5.20;1.00;;;;;;;0.40;100.00;100614.22;4994118;28;20521;-80
2021/01/04 04:13:35;;;;;;;0.22;0.22;;;;;;;0.38;100.00;100616.56;5013404;28;20072;-80
2021/01/04 04:16:39;;;;;;;1.92;0.68;;;;;;;0.33;100.00;100608.72;5013492;28;20057;-80
2021/01/04 04:19:47;;;;;;;1.17;0.47;;;;;;;0.24;100.00;100611.06;5012829;28;20068;-80
2021/01/04 04:22:52;;;;;;;2.00;1.05;;;;;;;0.08;100.00;100610.59;5012041;28;20060;-80
2021/01/04 04:25:56;;;;;;;0.40;0.20;;;;;;;-0.06;100.00;100603.91;4994044;28;20522;-80
2021/01/04 04:28:59;;;;;;;0.47;0.45;;;;;;;-0.16;100.00;100612.09;4982080;28;20045;-80
2021/01/04 04:32:03;;;;;;;10.85;1.15;;;;;;;-0.28;100.00;100615.94;4994064;28;20403;-80
2021/01/04 04:35:12;;;;;;;0.80;0.70;;;;;;;-0.40;100.00;100621.75;4980969;28;20058;-80
2021/01/04 04:38:16;;;;;;;3.10;1.13;;;;;;;-0.50;100.00;100617.00;4993857;28;20053;-80
2021/01/04 04:41:44;;;;;;;0.75;0.55;;;;;;;-0.50;100.00;100617.00;4993191;28;20053;-80
2021/01/04 04:45:00;;;;;;;0.20;0.20;;;;;;;-0.52;100.00;100611.09;4981771;28;20069;-80
2021/01/04 04:48:06;;;;;;;0.95;0.70;;;;;;;-0.51;100.00;100609.94;4982263;28;20061;-80
2021/01/04 04:51:28;;;;;;;1.45;0.68;;;;;;;-0.40;100.00;100626.44;4995985;28;20410;-80
2021/01/04 04:54:53;;;;;;;11.40;1.42;;;;;;;-0.24;100.00;100619.47;4995679;28;20126;-82
2021/01/04 04:58:25;;;;;;;0.30;0.30;;;;;;;-0.07;100.00;100613.31;4981021;28;20054;-81
2021/01/04 05:01:50;;;;;;;4.40;0.77;;;;;;;-0.03;100.00;100614.09;5011185;28;20057;-82
2021/01/04 05:04:53;;;;;;;1.17;1.10;;;;;;;0.05;100.00;100619.56;5008703;28;20080;-81
2021/01/04 05:08:11;;;;;;;2.53;0.90;;;;;;;0.09;100.00;100615.69;4986945;28;20058;-81
2021/01/04 05:11:20;;;;;;;24.25;1.75;;;;;;;0.14;100.00;100620.00;4999534;28;20049;-81
2021/01/04 05:14:27;;;;;;;3.60;1.02;;;;;;;0.23;100.00;100615.75;5013424;28;20049;-81
2021/01/04 05:18:01;;;;;;;0.43;0.40;;;;;;;0.29;100.00;100622.41;5013460;28;20520;-81
2021/01/04 05:21:35;;;;;;;1.05;0.93;;;;;;;0.30;100.00;100620.47;5013347;28;20104;-81
2021/01/04 05:25:10;;;;;;;1.95;1.33;;;;;;;0.35;100.00;100631.00;4997430;28;20057;-80
2021/01/04 05:28:29;;;;;;;0.40;0.40;;;;;;;0.37;100.00;100621.25;4993311;28;20126;-81
2021/01/04 05:31:52;;;;;;;5.43;0.85;;;;;;;0.41;100.00;100624.78;4993331;28;20053;-80
2021/01/04 05:35:00;;;;;;;3.45;1.00;;;;;;;0.43;100.00;100624.41;4993285;28;20057;-81
2021/01/04 05:38:39;;;;;;;1.00;0.65;;;;;;;0.41;100.00;100629.50;4993755;28;20096;-80
2021/01/04 05:42:04;;;;;;;1.35;1.13;;;;;;;0.35;100.00;100623.59;4993321;28;20058;-81
2021/01/04 05:45:17;;;;;;;1.10;0.70;;;;;;;0.35;100.00;100618.13;4992251;28;20125;-80
2021/01/04 05:48:36;;;;;;;3.75;0.77;;;;;;;0.43;100.00;100624.41;4981215;28;20053;-82
2021/01/04 05:51:45;;;;;;;1.88;0.88;;;;;;;0.45;100.00;100620.09;4984616;28;20053;-80
2021/01/04 05:54:49;;;;;;;0.40;0.35;;;;;;;0.46;100.00;100618.13;4992531;28;20049;-80
2021/01/04 05:57:54;;;;;;;2.92;0.73;;;;;;;0.47;100.00;100633.41;4993441;28;20053;-80
2021/01/04 06:01:12;;;;;;;3.85;0.93;;;;;;;0.43;100.00;100618.94;4980633;28;20049;-80
2021/01/04 06:04:26;;;;;;;0.68;0.65;;;;;;;0.41;100.00;100621.28;4992301;28;20058;-80
2021/01/04 06:07:34;;;;;;;0.95;0.95;;;;;;;0.40;100.00;100623.22;4979465;28;20058;-81
2021/01/04 06:10:38;;;;;;;0.95;0.60;;;;;;;0.44;100.00;100625.97;4991027;28;20065;-80
2021/01/04 06:13:45;;;;;;;1.00;0.70;;;;;;;0.49;100.00;100628.31;5002266;28;20073;-80
2021/01/04 06:17:01;;;;;;;1.73;1.42;;;;;;;0.49;100.00;100628.31;5009970;28;20509;-81
2021/01/04 06:20:38;;;;;;;1.45;1.35;;;;;;;0.56;100.00;100639.31;4999255;28;20060;-81
2021/01/04 06:23:42;;;;;;;1.08;0.55;;;;;;;0.62;100.00;100637.75;5011631;28;20053;-80
2021/01/04 06:26:52;;;;;;;2.38;1.15;;;;;;;0.67;100.00;100651.06;5011929;28;20057;-82
2021/01/04 06:29:56;;;;;;;1.33;1.23;;;;;;;0.76;100.00;100648.72;5012111;28;20053;-82
2021/01/04 06:33:19;;;;;;;1.90;0.88;;;;;;;0.80;100.00;100649.53;5010901;28;20118;-82
2021/01/04 06:36:25;;;;;;;2.28;1.15;;;;;;;0.84;100.00;100646.78;4999975;28;20049;-82
2021/01/04 06:39:33;;;;;;;4.28;1.48;;;;;;;0.82;100.00;100657.34;4999811;28;20069;-82
2021/01/04 06:42:40;;;;;;;1.30;0.85;;;;;;;0.82;100.00;100663.63;5022846;28;20045;-82
2021/01/04 06:46:21;;;;;;;1.17;1.08;;;;;;;0.84;100.00;100664.03;5012187;28;20052;-82
2021/01/04 06:49:29;;;;;;;1.25;1.02;;;;;;;0.89;100.00;100658.13;4999780;28;20545;-82
2021/01/04 06:52:51;;;;;;;2.28;0.73;;;;;;;0.91;100.00;100661.25;4991809;28;20062;-83
2021/01/04 06:56:32;;;;;;;0.35;0.35;;;;;;;0.95;100.00;100664.81;4992059;28;20057;-82
2021/01/04 06:59:53;;;;;;;0.63;0.43;;;;;;;0.98;100.00;100661.28;4984159;28;20073;-84
2021/01/04 07:03:14;;;;;;;0.85;0.60;;;;;;;0.97;100.00;100659.72;4983539;28;20057;-83
2021/01/04 07:06:21;;;;;;;0.98;0.65;;;;;;;0.97;100.00;100662.47;4995700;28;20431;-82
2021/01/04 07:09:49;;;;;;;1.50;1.02;;;;;;;0.94;100.00;100660.50;4984250;28;20073;-82
2021/01/04 07:13:22;;;;;;;1.17;0.52;;;;;;;0.81;100.00;100662.03;4984551;28;20049;-82
2021/01/04 07:16:33;;;;;;;2.67;0.82;;;;;;;0.75;100.00;100658.91;4983529;28;20061;-82
2021/01/04 07:19:51;;;;;;;1.35;0.85;;;;;;;0.80;100.00;100654.22;4983769;28;20110;-82
2021/01/04 07:22:54;;;;;;;0.63;0.40;;;;;;;0.88;100.00;100662.06;4982963;28;20062;-82
2021/01/04 07:26:13;;;;;;;8.20;1.20;;;;;;;0.94;100.00;100657.75;4995613;28;20046;-82
2021/01/04 07:29:47;;;;;;;0.13;0.13;;;;;;;0.97;100.00;100664.41;4995605;28;20053;-80
2021/01/04 07:33:05;;;;;;;0.30;0.30;;;;;;;0.99;100.00;100673.81;4996080;28;20065;-82
2021/01/04 07:36:15;;;;;;;0.65;0.43;;;;;;;1.04;100.00;100665.19;4983495;28;20077;-83
2021/01/04 07:39:29;;;;;;;0.47;0.40;;;;;;;1.10;100.00;100663.66;4983745;28;20073;-83
2021/01/04 07:42:57;;;;;;;4.10;1.15;;;;;;;1.16;100.00;100680.47;4982984;28;20076;-82
2021/01/04 07:46:28;;;;;;;0.40;0.38;;;;;;;1.17;100.00;100677.34;4982385;28;20053;-83
2021/01/04 07:50:01;;;;;;;0.93;0.65;;;;;;;1.20;100.00;100668.34;4995259;28;20126;-83
2021/01/04 07:53:23;;;;;;;2.08;0.55;;;;;;;1.25;100.00;100669.91;4966835;28;20053;-83
2021/01/04 07:56:54;;;;;;;1.73;0.93;;;;;;;1.20;100.00;100673.81;4994496;28;20832;-84
2021/01/04 08:00:16;;;;;;;0.93;0.63;;;;;;;1.18;100.00;100681.66;4975774;28;20058;-83
2021/01/04 08:03:19;;;;;;;;;;;;;;;1.19;100.00;100676.97;4999256;28;20049;-82
2021/01/04 08:07:05;;;;;;;1.23;0.77;;;;;;;1.19;100.00;100679.72;4994594;28;20279;-83
2021/01/04 08:10:17;;;;;;;0.28;0.22;;;;;;;1.22;100.00;100682.44;4994456;28;20079;-83
2021/01/04 08:13:58;;;;;;;6.72;1.33;;;;;;;1.24;100.00;100680.09;4995369;28;20049;-84
2021/01/04 08:17:14;;;;;;;10.13;0.70;;;;;;;1.27;100.00;100684.00;4995294;28;20049;-84
2021/01/04 08:20:19;;;;;;;0.88;0.75;;;;;;;1.29;100.00;100687.94;4994276;28;20053;-82
2021/01/04 08:23:40;;;;;;;10.35;2.10;;;;;;;1.30;100.00;100688.72;4995185;28;20057;-80
2021/01/04 08:26:46;;;;;;;1.23;0.55;;;;;;;1.24;100.00;100685.56;4984656;28;20050;-87
2021/01/04 08:30:01;;;;;;;4.25;0.73;;;;;;;1.16;100.00;100692.25;4985924;28;20053;-85
2021/01/04 08:33:11;;;;;;;1.58;0.90;;;;;;;1.19;100.00;100693.44;4994670;28;20050;-80
2021/01/04 08:36:17;;;;;;;0.88;0.75;;;;;;;1.24;100.00;100696.56;4994113;28;20053;-82
2021/01/04 08:39:21;;;;;;;0.50;0.20;;;;;;;1.31;100.00;100707.53;4994085;28;20054;-82
2021/01/04 08:42:31;;;;;;;0.63;0.63;;;;;;;1.35;100.00;100702.81;4994920;28;20061;-87
2021/01/04 08:45:45;;;;;;;5.45;1.25;;;;;;;1.33;100.00;100698.91;5006329;28;20077;-87
2021/01/04 08:49:14;;;;;;;0.75;0.65;;;;;;;1.29;100.00;100704.41;4993679;28;20049;-83
2021/01/04 08:52:20;;;;;;;5.35;1.05;;;;;;;1.24;100.00;100710.25;5010162;28;20056;-82
2021/01/04 08:55:31;;;;;;;0.68;0.68;;;;;;;1.24;100.00;100715.75;5010113;28;20052;-81
2021/01/04 08:58:44;;;;;;;0.93;0.75;;;;;;;1.32;100.00;100725.53;5011942;28;20053;-80
2021/01/04 09:01:53;;;;;;;1.48;0.50;;;;;;;1.36;100.00;100731.06;5004084;28;20513;-83
2021/01/04 09:05:00;;;;;;;0.38;0.38;;;;;;;1.41;100.00;100734.19;5014007;28;20053;-82
2021/01/04 09:08:06;;;;;;;8.77;0.95;;;;;;;1.47;100.00;100738.09;4999824;28;20053;-83
2021/01/04 09:11:11;;;;;;;0.82;0.73;;;;;;;1.49;100.00;100734.97;5002969;28;20545;-83
2021/01/04 09:14:24;;;;;;;0.95;0.60;;;;;;;1.48;100.00;100733.38;4980289;28;20046;-83
2021/01/04 09:17:42;;;;;;;1.23;0.32;;;;;;;1.50;100.00;100731.03;4980445;28;20053;-84
2021/01/04 09:20:47;;;;;;;3.70;0.85;;;;;;;1.54;100.00;100732.59;4979820;28;20057;-83
2021/01/04 09:23:52;;;;;;;0.80;0.77;;;;;;;1.56;100.00;100734.19;4982813;28;20054;-85
2021/01/04 09:27:03;;;;;;;2.65;1.13;;;;;;;1.60;100.00;100729.47;4996759;28;20045;-82
2021/01/04 09:30:10;;;;;;;1.27;0.57;;;;;;;1.61;100.00;100731.81;4992137;28;20553;-82
2021/01/04 09:33:17;;;;;;;7.22;0.65;;;;;;;1.67;100.00;100727.50;4991944;28;20403;-82
2021/01/04 09:36:22;;;;;;;1.25;0.68;;;;;;;1.72;100.00;100727.09;4992307;28;20062;-82
2021/01/04 09:39:30;;;;;;;1.52;0.47;;;;;;;1.77;100.00;100729.47;4992451;28;20061;-82
2021/01/04 09:42:34;;;;;;;2.08;0.43;;;;;;;1.79;100.00;100724.34;4992529;28;20062;-80
2021/01/04 09:45:38;;;;;;;2.95;1.05;;;;;;;1.81;100.00;100730.22;4993111;28;20049;-81
2021/01/04 09:49:05;;;;;;;0.28;0.20;;;;;;;1.84;100.00;100725.91;4993286;28;20057;-84
2021/01/04 09:52:36;;;;;;;1.20;0.55;;;;;;;1.80;100.00;100741.63;4994309;28;20407;-83
2021/01/04 09:55:44;;;;;;;0.38;0.38;;;;;;;1.83;100.00;100743.56;4976722;28;20422;-84
2021/01/04 09:58:48;;;;;;;8.82;0.60;;;;;;;1.87;100.00;100749.81;5010462;28;20053;-86
2021/01/04 10:01:55;;;;;;;1.55;1.05;;;;;;;1.86;100.00;100742.78;5013718;28;20049;-84
2021/01/04 10:05:09;;;;;;;0.90;0.47;;;;;;;1.80;100.00;100760.84;5002059;28;20073;-86
2021/01/04 10:08:17;;;;;;;0.28;0.17;;;;;;;1.71;100.00;100752.22;5000978;28;20053;-86
2021/01/04 10:11:23;;;;;;;4.85;1.23;;;;;;;1.67;100.00;100745.94;4998174;28;20057;-84
2021/01/04 10:14:27;;;;;;;1.45;0.88;;;;;;;1.70;100.00;100756.91;5012950;28;20545;-85
2021/01/04 10:17:40;;;;;;;1.35;0.38;;;;;;;1.72;100.00;100748.28;5000483;28;20062;-83
2021/01/04 10:20:50;;;;;;;5.00;1.40;;;;;;;1.79;100.00;100760.06;4975628;28;20506;-86
2021/01/04 10:24:03;;;;;;;0.30;0.30;;;;;;;1.87;100.00;100758.84;5009602;28;20057;-86
2021/01/04 10:27:07;;;;;;;1.15;0.55;;;;;;;1.92;100.00;100760.41;5012503;28;20049;-86
2021/01/04 10:30:14;;;;;;;0.45;0.30;;;;;;;1.99;100.00;100757.66;5012558;28;20049;-86
2021/01/04 10:33:34;;;;;;;1.65;0.55;;;;;;;2.06;100.00;100761.16;5016057;28;20068;-84
2021/01/04 10:36:41;;;;;;;0.68;0.50;;;;;;;2.12;100.00;100753.31;5005434;28;20410;-86
2021/01/04 10:39:45;;;;;;;5.25;0.52;;;;;;;2.16;100.00;100756.84;5004651;28;20056;-85
2021/01/04 10:43:00;;;;;;;0.38;0.38;;;;;;;2.18;100.00;100754.47;5015841;28;20072;-85
2021/01/04 10:46:17;;;;;;;0.20;0.20;;;;;;;2.20;100.00;100741.13;5016344;28;20125;-84
2021/01/04 10:49:27;;;;;;;2.80;0.63;;;;;;;2.27;100.00;100741.09;5016383;28;20045;-86
2021/01/04 10:52:30;;;;;;;0.32;0.30;;;;;;;2.28;100.00;100746.19;5026651;28;20398;-86
2021/01/04 10:55:50;;;;;;;0.40;0.30;;;;;;;2.42;100.00;100736.34;5005668;28;20061;-80
2021/01/04 10:59:10;;;;;;;0.13;0.13;;;;;;;2.52;100.00;100747.28;5018242;28;20053;-88
2021/01/04 11:02:14;;;;;;;5.47;0.50;;;;;;;2.63;100.00;100742.53;5008534;28;20057;-83
2021/01/04 11:05:21;;;;;;;0.20;0.20;;;;;;;2.76;100.00;100740.88;5003867;28;20068;-86
2021/01/04 11:08:24;;;;;;;0.10;0.10;;;;;;;2.78;100.00;100735.78;5016373;28;20053;-87
2021/01/04 11:11:39;;;;;;;2.72;0.20;;;;;;;2.76;100.00;100740.09;5003284;28;20072;-84
2021/01/04 11:14:53;;;;;;;0.63;0.20;;;;;;;2.73;100.00;100740.91;5003714;28;20057;-86
2021/01/04 11:18:08;;;;;;;0.10;0.10;;;;;;;2.72;100.00;100737.38;4989018;28;20058;-86
2021/01/04 11:21:13;;;;;;;1.45;0.30;;;;;;;2.64;100.00;100732.31;4996083;28;20058;-84
2021/01/04 11:24:16;;;;;;;2.22;0.40;;;;;;;2.74;100.00;100720.47;4983950;28;20053;-85
2021/01/04 11:27:20;;;;;;;0.57;0.32;;;;;;;2.78;100.00;100724.78;4984219;28;20069;-86
2021/01/04 11:30:24;;;;;;;1.13;0.45;;;;;;;2.80;100.00;100721.59;4983822;28;20053;-84
2021/01/04 11:33:27;;;;;;;2.75;0.68;;;;;;;2.88;100.00;100715.66;4995644;28;20054;-85
2021/01/04 11:36:31;;;;;;;0.28;0.20;;;;;;;2.97;100.00;100715.22;4984021;28;20049;-83
2021/01/04 11:39:36;;;;;;;0.52;0.45;;;;;;;3.04;100.00;100724.22;4996281;28;20061;-85
2021/01/04 11:42:41;;;;;;;1.55;0.95;;;;;;;3.08;100.00;100713.97;4984208;28;20077;-84
2021/01/04 11:45:44;;;;;;;0.28;0.25;;;;;;;3.15;100.00;100712.34;4983848;28;20054;-84
2021/01/04 11:48:47;;;;;;;0.47;0.30;;;;;;;3.17;100.00;100715.47;4983196;28;20054;-82
2021/01/04 11:51:52;;;;;;;0.55;0.30;;;;;;;3.18;100.00;100714.31;4983005;28;20518;-82
2021/01/04 11:54:55;;;;;;;2.45;0.35;;;;;;;3.25;100.00;100711.50;4994917;28;20050;-82
2021/01/04 11:57:59;;;;;;;7.72;0.43;;;;;;;3.26;100.00;100713.84;4995257;28;20061;-82
2021/01/04 12:01:02;;;;;;;0.47;0.22;;;;;;;3.21;100.00;100706.00;4982755;28;20061;-83
2021/01/04 12:04:06;;;;;;;0.10;0.10;;;;;;;3.11;100.00;100706.09;4982733;28;20078;-81
2021/01/04 12:07:11;;;;;;;0.30;0.30;;;;;;;3.05;100.00;100703.75;4995559;28;20053;-85
2021/01/04 12:10:16;;;;;;;0.47;0.20;;;;;;;3.03;100.00;100706.13;4979671;28;20049;-82
2021/01/04 12:13:19;;;;;;;2.85;0.65;;;;;;;2.97;100.00;100707.75;4994473;28;20049;-80
2021/01/04 12:16:23;;;;;;;0.43;0.43;;;;;;;2.87;100.00;100703.09;4997403;28;20418;-80
2021/01/04 12:19:26;;;;;;;23.58;0.95;;;;;;;2.83;100.00;100710.59;5015804;28;20048;-81
2021/01/04 12:22:29;;;;;;;0.25;0.10;;;;;;;2.83;100.00;100705.09;5015852;28;20057;-81
2021/01/04 12:25:33;;;;;;;5.70;0.50;;;;;;;2.85;100.00;100694.47;5001816;28;20057;-80
2021/01/04 12:28:36;;;;;;;11.55;0.75;;;;;;;2.81;100.00;100699.22;5013986;28;20045;-80
2021/01/04 12:31:39;;;;;;;2.33;0.85;;;;;;;2.82;100.00;100700.78;5014159;28;20056;-80
2021/01/04 12:34:44;;;;;;;2.20;0.60;;;;;;;2.81;100.00;100693.72;5014328;28;20057;-79
2021/01/04 12:37:47;;;;;;;0.43;0.20;;;;;;;2.78;100.00;100678.00;5013838;28;20068;-80
2021/01/04 12:40:51;;;;;;;1.23;0.80;;;;;;;2.82;100.00;100684.28;5013832;28;20145;-80
2021/01/04 12:43:55;;;;;;;0.20;0.20;;;;;;;2.83;100.00;100687.81;5014608;28;20053;-79
2021/01/04 12:46:58;;;;;;;0.55;0.38;;;;;;;2.84;100.00;100684.66;5014107;28;20061;-79
2021/01/04 12:50:02;;;;;;;0.30;0.20;;;;;;;2.85;100.00;100682.69;5000963;28;20045;-78
2021/01/04 12:53:05;;;;;;;0.22;0.13;;;;;;;2.82;100.00;100676.03;5013940;28;20052;-79
2021/01/04 12:56:10;;;;;;;2.35;0.55;;;;;;;2.81;100.00;100666.22;5012653;28;20060;-79
2021/01/04 12:59:18;;;;;;;1.65;0.30;;;;;;;2.82;100.00;100667.78;5014406;28;20056;-78
2021/01/04 13:02:21;;;;;;;0.45;0.45;;;;;;;2.80;100.00;100664.63;5013214;28;20374;-80
2021/01/04 13:05:24;;;;;;;0.57;0.40;;;;;;;2.80;100.00;100653.63;5000530;28;20156;-81
2021/01/04 13:08:28;;;;;;;5.10;0.38;;;;;;;2.81;100.00;100654.44;5013571;28;20049;-80
2021/01/04 13:11:31;;;;;;;4.57;0.63;;;;;;;2.79;100.00;100656.81;5012816;28;20053;-79
2021/01/04 13:14:35;;;;;;;3.17;0.65;;;;;;;2.80;100.00;100655.59;5012956;28;20057;-78
2021/01/04 13:17:38;;;;;;;0.75;0.70;;;;;;;2.83;100.00;100652.06;4987616;28;20776;-79
2021/01/04 13:20:42;;;;;;;0.20;0.20;;;;;;;2.88;100.00;100652.41;4992939;28;20049;-81
2021/01/04 13:23:46;;;;;;;0.22;0.10;;;;;;;2.93;100.00;100646.47;4980913;28;20049;-78
2021/01/04 13:26:52;;;;;;;2.40;0.47;;;;;;;3.00;100.00;100643.69;4993112;28;20054;-78
2021/01/04 13:29:56;;;;;;;4.68;0.43;;;;;;;3.08;100.00;100639.66;4993355;28;20049;-79
2021/01/04 13:32:59;;;;;;;0.52;0.15;;;;;;;3.16;100.00;100642.38;4981729;28;20069;-78
2021/01/04 13:36:10;;;;;;;0.68;0.52;;;;;;;3.21;100.00;100639.16;4993766;28;20196;-83
2021/01/04 13:39:14;;;;;;;8.57;0.38;;;;;;;3.27;100.00;100632.06;4992420;28;20057;-82
2021/01/04 13:42:18;;;;;;;1.90;0.17;;;;;;;3.27;100.00;100637.56;4993622;28;20050;-83
2021/01/04 13:45:22;;;;;;;3.10;0.82;;;;;;;3.27;100.00;100634.81;4980652;28;20061;-82
2021/01/04 13:48:25;;;;;;;0.85;0.30;;;;;;;3.30;100.00;100626.50;4992670;28;20518;-81
2021/01/04 13:51:29;;;;;;;0.10;0.10;;;;;;;3.28;100.00;100628.09;4981159;28;20073;-82
2021/01/04 13:54:33;;;;;;;0.20;0.20;;;;;;;3.24;100.00;100632.84;4996023;28;20065;-84
2021/01/04 13:57:39;;;;;;;22.60;1.05;;;;;;;3.20;100.00;100640.38;4982006;28;20053;-76
2021/01/04 14:00:43;;;;;;;0.73;0.10;;;;;;;3.18;100.00;100640.00;4992651;28;20470;-76
2021/01/04 14:03:47;;;;;;;1.17;0.20;;;;;;;3.18;100.00;100645.50;4992766;28;20050;-76
2021/01/04 14:06:50;;;;;;;0.65;0.45;;;;;;;3.18;100.00;100629.00;4993099;28;20517;-76
2021/01/04 14:09:54;;;;;;;8.32;0.70;;;;;;;3.20;100.00;100632.13;4996619;28;20049;-76
2021/01/04 14:12:57;;;;;;;0.93;0.55;;;;;;;3.20;100.00;100627.41;4998504;28;20554;-78
2021/01/04 14:16:01;;;;;;;9.80;0.70;;;;;;;3.22;100.00;100638.00;4995917;28;20057;-80
2021/01/04 14:19:04;;;;;;;0.10;0.10;;;;;;;3.22;100.00;100630.53;4977242;28;20054;-79
2021/01/04 14:22:08;;;;;;;0.70;0.28;;;;;;;3.23;100.00;100631.31;4975551;28;20049;-79
2021/01/04 14:25:12;;;;;;;4.43;0.32;;;;;;;3.21;100.00;100637.19;4964456;28;20073;-78
2021/01/04 14:28:16;;;;;;;1.95;0.25;;;;;;;3.20;100.00;100637.63;4976375;28;20062;-79
2021/01/04 14:31:20;;;;;;;10.63;0.38;;;;;;;3.17;100.00;100632.91;4976810;28;20062;-79
2021/01/04 14:34:24;;;;;;;1.10;0.32;;;;;;;3.16;100.00;100625.88;4976672;28;20058;-79
2021/01/04 14:37:27;;;;;;;2.70;0.45;;;;;;;3.12;100.00;100625.13;4976750;28;20054;-79
2021/01/04 14:40:30;;;;;;;0.20;0.20;;;;;;;3.07;100.00;100629.84;4976327;28;20050;-79
2021/01/04 14:43:35;;;;;;;0.70;0.22;;;;;;;3.03;100.00;100637.34;4976318;28;20058;-78
2021/01/04 14:46:39;;;;;;;10.13;0.35;;;;;;;2.99;100.00;100633.84;4976582;28;20422;-79